sensor_id;sensor_type;location;lat;lon;timestamp;pressure;altitude;pressure_sealevel;temperature;humidity
43745;BME280;29359;53.048;8.732;2022-12-10T00:01:27;100996.41;;;0.46;88.32
43745;BME280;29359;53.048;8.732;2022-12-10T00:03:29;100992.09;;;0.46;88.29
43745;BME280;29359;53.048;8.732;2022-12-10T00:05:33;100995.56;;;0.47;87.98
43745;BME280;29359;53.048;8.732;2022-12-10T00:07:35;100992.09;;;0.46;88.19
43745;BME280;29359;53.048;8.732;2022-12-10T00:09:38;101001.63;;;0.46;88.62
43745;BME280;29359;53.048;8.732;2022-12-10T00:11:39;100997.28;;;0.45;87.86
43745;BME280;29359;53.048;8.732;2022-12-10T00:13:42;101001.59;;;0.44;88.25
43745;BME280;29359;53.048;8.732;2022-12-10T00:15:44;101000.66;;;0.42;88.07
43745;BME280;29359;53.048;8.732;2022-12-10T00:17:46;101003.25;;;0.42;87.88
43745;BME280;29359;53.048;8.732;2022-12-10T00:19:47;101010.19;;;0.42;87.69
43745;BME280;29359;53.048;8.732;2022-12-10T00:21:49;101006.69;;;0.40;87.87
43745;BME280;29359;53.048;8.732;2022-12-10T00:23:51;101002.38;;;0.40;87.97
43745;BME280;29359;53.048;8.732;2022-12-10T00:25:52;101007.53;;;0.39;88.33
43745;BME280;29359;53.048;8.732;2022-12-10T00:27:54;100999.75;;;0.39;88.33
43745;BME280;29359;53.048;8.732;2022-12-10T00:29:55;101002.34;;;0.39;88.52
43745;BME280;29359;53.048;8.732;2022-12-10T00:31:56;100996.28;;;0.38;88.45
43745;BME280;29359;53.048;8.732;2022-12-10T00:34:01;100994.50;;;0.36;88.78
43745;BME280;29359;53.048;8.732;2022-12-10T00:36:12;100997.06;;;0.32;89.62
43745;BME280;29359;53.048;8.732;2022-12-10T00:38:14;100984.88;;;0.28;90.05
43745;BME280;29359;53.048;8.732;2022-12-10T00:40:15;100996.97;;;0.28;90.19
43745;BME280;29359;53.048;8.732;2022-12-10T00:42:17;100994.41;;;0.29;90.13
43745;BME280;29359;53.048;8.732;2022-12-10T00:44:18;101001.34;;;0.30;89.98
43745;BME280;29359;53.048;8.732;2022-12-10T00:46:20;101000.44;;;0.28;90.15
43745;BME280;29359;53.048;8.732;2022-12-10T00:48:21;101009.84;;;0.20;90.77
43745;BME280;29359;53.048;8.732;2022-12-10T00:50:23;101002.00;;;0.17;90.79
43745;BME280;29359;53.048;8.732;2022-12-10T00:52:24;101007.22;;;0.19;91.22
43745;BME280;29359;53.048;8.732;2022-12-10T00:54:26;101007.25;;;0.20;91.43
43745;BME280;29359;53.048;8.732;2022-12-10T00:56:30;101004.69;;;0.23;91.52
43745;BME280;29359;53.048;8.732;2022-12-10T00:58:34;101003.00;;;0.25;91.36
43745;BME280;29359;53.048;8.732;2022-12-10T01:00:36;101002.13;;;0.25;91.14
43745;BME280;29359;53.048;8.732;2022-12-10T01:02:38;101004.69;;;0.23;91.38
43745;BME280;29359;53.048;8.732;2022-12-10T01:04:39;101002.06;;;0.22;91.65
43745;BME280;29359;53.048;8.732;2022-12-10T01:06:52;101007.28;;;0.22;92.03
43745;BME280;29359;53.048;8.732;2022-12-10T01:08:57;101011.63;;;0.23;92.28
43745;BME280;29359;53.048;8.732;2022-12-10T01:10:58;101014.25;;;0.26;91.73
43745;BME280;29359;53.048;8.732;2022-12-10T01:13:06;101012.56;;;0.28;92.15
43745;BME280;29359;53.048;8.732;2022-12-10T01:15:08;101016.00;;;0.27;92.04
43745;BME280;29359;53.048;8.732;2022-12-10T01:17:09;101018.63;;;0.28;91.80
43745;BME280;29359;53.048;8.732;2022-12-10T01:19:11;101021.25;;;0.30;91.19
43745;BME280;29359;53.048;8.732;2022-12-10T01:21:19;101023.88;;;0.31;91.31
43745;BME280;29359;53.048;8.732;2022-12-10T01:23:20;101023.88;;;0.31;90.99
43745;BME280;29359;53.048;8.732;2022-12-10T01:25:22;101019.56;;;0.32;91.62
43745;BME280;29359;53.048;8.732;2022-12-10T01:27:23;101022.16;;;0.32;91.15
43745;BME280;29359;53.048;8.732;2022-12-10T01:29:25;101028.25;;;0.34;91.52
43745;BME280;29359;53.048;8.732;2022-12-10T01:31:33;101033.41;;;0.32;91.45
43745;BME280;29359;53.048;8.732;2022-12-10T01:33:35;101023.03;;;0.32;91.65
43745;BME280;29359;53.048;8.732;2022-12-10T01:35:37;101036.06;;;0.36;91.73
43745;BME280;29359;53.048;8.732;2022-12-10T01:37:39;101031.72;;;0.36;91.64
43745;BME280;29359;53.048;8.732;2022-12-10T01:39:40;101036.94;;;0.36;91.90
43745;BME280;29359;53.048;8.732;2022-12-10T01:41:48;101037.78;;;0.35;92.04
43745;BME280;29359;53.048;8.732;2022-12-10T01:46:09;101048.03;;;0.27;92.37
43745;BME280;29359;53.048;8.732;2022-12-10T01:48:11;101044.56;;;0.27;92.34
43745;BME280;29359;53.048;8.732;2022-12-10T01:50:13;101047.09;;;0.22;93.06
43745;BME280;29359;53.048;8.732;2022-12-10T01:52:14;101057.47;;;0.22;92.79
43745;BME280;29359;53.048;8.732;2022-12-10T01:54:25;101048.88;;;0.25;93.38
43745;BME280;29359;53.048;8.732;2022-12-10T01:56:27;101054.09;;;0.26;92.95
43745;BME280;29359;53.048;8.732;2022-12-10T01:58:29;101053.28;;;0.30;93.03
43745;BME280;29359;53.048;8.732;2022-12-10T02:00:34;101056.78;;;0.32;92.40
43745;BME280;29359;53.048;8.732;2022-12-10T02:02:46;101062.00;;;0.34;92.68
43745;BME280;29359;53.048;8.732;2022-12-10T02:07:23;101064.66;;;0.37;92.55
43745;BME280;29359;53.048;8.732;2022-12-10T02:11:52;101058.63;;;0.40;92.59
43745;BME280;29359;53.048;8.732;2022-12-10T02:14:03;101058.63;;;0.40;91.94
43745;BME280;29359;53.048;8.732;2022-12-10T02:18:59;101056.03;;;0.40;92.63
43745;BME280;29359;53.048;8.732;2022-12-10T02:21:09;101059.44;;;0.37;92.49
43745;BME280;29359;53.048;8.732;2022-12-10T02:23:18;101055.97;;;0.35;92.57
43745;BME280;29359;53.048;8.732;2022-12-10T02:25:27;101057.69;;;0.36;92.21
43745;BME280;29359;53.048;8.732;2022-12-10T02:27:51;101056.00;;;0.38;92.18
43745;BME280;29359;53.048;8.732;2022-12-10T02:29:57;101058.63;;;0.40;92.60
43745;BME280;29359;53.048;8.732;2022-12-10T02:32:18;101060.41;;;0.42;92.57
43745;BME280;29359;53.048;8.732;2022-12-10T02:34:23;101055.22;;;0.42;92.73
43745;BME280;29359;53.048;8.732;2022-12-10T02:36:29;101056.94;;;0.42;91.93
43745;BME280;29359;53.048;8.732;2022-12-10T02:38:36;101049.97;;;0.41;92.67
43745;BME280;29359;53.048;8.732;2022-12-10T02:40:39;101059.56;;;0.43;92.00
43745;BME280;29359;53.048;8.732;2022-12-10T02:42:47;101065.59;;;0.42;92.42
43745;BME280;29359;53.048;8.732;2022-12-10T02:44:50;101063.81;;;0.40;92.85
43745;BME280;29359;53.048;8.732;2022-12-10T02:46:55;101069.88;;;0.40;92.47
43745;BME280;29359;53.048;8.732;2022-12-10T02:48:58;101067.28;;;0.40;92.41
43745;BME280;29359;53.048;8.732;2022-12-10T02:51:02;101056.03;;;0.40;92.80
43745;BME280;29359;53.048;8.732;2022-12-10T02:53:03;101061.28;;;0.43;92.45
43745;BME280;29359;53.048;8.732;2022-12-10T02:55:05;101068.28;;;0.45;92.33
43745;BME280;29359;53.048;8.732;2022-12-10T02:57:18;101065.69;;;0.47;92.58
43745;BME280;29359;53.048;8.732;2022-12-10T02:59:29;101067.47;;;0.49;92.34
43745;BME280;29359;53.048;8.732;2022-12-10T03:02:18;101067.47;;;0.49;92.00
43745;BME280;29359;53.048;8.732;2022-12-10T03:04:19;101065.75;;;0.50;91.61
43745;BME280;29359;53.048;8.732;2022-12-10T03:06:39;101077.03;;;0.52;92.24
43745;BME280;29359;53.048;8.732;2022-12-10T03:08:59;101070.09;;;0.51;91.90
43745;BME280;29359;53.048;8.732;2022-12-10T03:11:25;101070.84;;;0.44;92.13
43745;BME280;29359;53.048;8.732;2022-12-10T03:13:29;101069.88;;;0.40;91.87
43745;BME280;29359;53.048;8.732;2022-12-10T03:15:35;101056.94;;;0.42;92.25
43745;BME280;29359;53.048;8.732;2022-12-10T03:17:39;101059.56;;;0.43;91.75
43745;BME280;29359;53.048;8.732;2022-12-10T03:19:46;101064.81;;;0.46;92.37
43745;BME280;29359;53.048;8.732;2022-12-10T03:21:50;101061.38;;;0.47;91.87
43745;BME280;29359;53.048;8.732;2022-12-10T03:23:52;101063.06;;;0.45;92.13
43745;BME280;29359;53.048;8.732;2022-12-10T03:25:54;101058.75;;;0.46;92.01
43745;BME280;29359;53.048;8.732;2022-12-10T03:27:56;101057.00;;;0.45;92.06
43745;BME280;29359;53.048;8.732;2022-12-10T03:30:00;101062.06;;;0.39;92.00
43745;BME280;29359;53.048;8.732;2022-12-10T03:32:02;101063.78;;;0.38;92.07
43745;BME280;29359;53.048;8.732;2022-12-10T03:34:05;101071.63;;;0.41;91.90
43745;BME280;29359;53.048;8.732;2022-12-10T03:36:08;101065.66;;;0.44;92.16
43745;BME280;29359;53.048;8.732;2022-12-10T03:38:09;101063.88;;;0.43;92.22
43745;BME280;29359;53.048;8.732;2022-12-10T03:40:12;101063.06;;;0.44;92.09
43745;BME280;29359;53.048;8.732;2022-12-10T03:42:13;101064.81;;;0.46;91.83
43745;BME280;29359;53.048;8.732;2022-12-10T03:44:27;101062.28;;;0.49;91.91
43745;BME280;29359;53.048;8.732;2022-12-10T03:46:31;101053.63;;;0.49;92.19
43745;BME280;29359;53.048;8.732;2022-12-10T03:48:32;101051.91;;;0.51;91.90
43745;BME280;29359;53.048;8.732;2022-12-10T03:50:34;101051.03;;;0.50;91.50
43745;BME280;29359;53.048;8.732;2022-12-10T03:52:35;101046.69;;;0.49;91.86
43745;BME280;29359;53.048;8.732;2022-12-10T03:54:37;101057.06;;;0.48;92.16
43745;BME280;29359;53.048;8.732;2022-12-10T03:56:38;101053.63;;;0.49;91.75
43745;BME280;29359;53.048;8.732;2022-12-10T03:58:40;101049.31;;;0.51;91.60
43745;BME280;29359;53.048;8.732;2022-12-10T04:00:41;101051.94;;;0.52;91.79
43745;BME280;29359;53.048;8.732;2022-12-10T04:02:43;101049.34;;;0.52;91.63
43745;BME280;29359;53.048;8.732;2022-12-10T04:04:45;101051.09;;;0.53;91.51
43745;BME280;29359;53.048;8.732;2022-12-10T04:06:46;101051.97;;;0.54;92.07
43745;BME280;29359;53.048;8.732;2022-12-10T04:08:48;101049.38;;;0.55;91.81
43745;BME280;29359;53.048;8.732;2022-12-10T04:11:08;101053.75;;;0.58;91.88
43745;BME280;29359;53.048;8.732;2022-12-10T04:13:10;101053.72;;;0.56;92.20
43745;BME280;29359;53.048;8.732;2022-12-10T04:15:30;101057.19;;;0.57;91.54
43745;BME280;29359;53.048;8.732;2022-12-10T04:17:50;101055.41;;;0.53;91.92
43745;BME280;29359;53.048;8.732;2022-12-10T04:19:51;101062.31;;;0.51;91.48
43745;BME280;29359;53.048;8.732;2022-12-10T04:21:53;101064.91;;;0.52;91.65
43745;BME280;29359;53.048;8.732;2022-12-10T04:24:13;101058.88;;;0.53;92.03
43745;BME280;29359;53.048;8.732;2022-12-10T04:26:34;101048.50;;;0.55;92.30
43745;BME280;29359;53.048;8.732;2022-12-10T04:28:53;101051.97;;;0.55;92.09
43745;BME280;29359;53.048;8.732;2022-12-10T04:30:54;101058.94;;;0.58;92.07
43745;BME280;29359;53.048;8.732;2022-12-10T04:32:56;101053.72;;;0.56;92.33
43745;BME280;29359;53.048;8.732;2022-12-10T04:34:58;101052.84;;;0.56;91.86
43745;BME280;29359;53.048;8.732;2022-12-10T04:37:00;101054.59;;;0.55;91.98
43745;BME280;29359;53.048;8.732;2022-12-10T04:39:02;101054.59;;;0.55;91.82
43745;BME280;29359;53.048;8.732;2022-12-10T04:41:04;101045.06;;;0.56;92.46
43745;BME280;29359;53.048;8.732;2022-12-10T04:43:16;101051.13;;;0.56;91.99
43745;BME280;29359;53.048;8.732;2022-12-10T04:45:17;101048.56;;;0.58;91.57
43745;BME280;29359;53.048;8.732;2022-12-10T04:47:19;101045.09;;;0.59;90.87
43745;BME280;29359;53.048;8.732;2022-12-10T04:49:21;101047.72;;;0.60;90.13
43745;BME280;29359;53.048;8.732;2022-12-10T04:51:22;101042.53;;;0.60;90.53
43745;BME280;29359;53.048;8.732;2022-12-10T04:53:24;101052.94;;;0.60;90.65
43745;BME280;29359;53.048;8.732;2022-12-10T04:55:25;101039.91;;;0.59;90.33
43745;BME280;29359;53.048;8.732;2022-12-10T04:57:27;101049.47;;;0.60;90.24
43745;BME280;29359;53.048;8.732;2022-12-10T04:59:28;101043.38;;;0.59;90.65
43745;BME280;29359;53.048;8.732;2022-12-10T05:01:30;101045.13;;;0.60;90.87
43745;BME280;29359;53.048;8.732;2022-12-10T05:03:32;101044.25;;;0.60;90.67
43745;BME280;29359;53.048;8.732;2022-12-10T05:05:34;101043.38;;;0.59;90.73
43745;BME280;29359;53.048;8.732;2022-12-10T05:07:36;101049.47;;;0.60;90.93
43745;BME280;29359;53.048;8.732;2022-12-10T05:09:37;101056.38;;;0.59;90.50
43745;BME280;29359;53.048;8.732;2022-12-10T05:11:39;101048.56;;;0.58;91.15
43745;BME280;29359;53.048;8.732;2022-12-10T05:13:41;101041.56;;;0.54;90.49
43745;BME280;29359;53.048;8.732;2022-12-10T05:15:42;101046.75;;;0.54;90.90
43745;BME280;29359;53.048;8.732;2022-12-10T05:17:44;101042.41;;;0.51;90.77
43745;BME280;29359;53.048;8.732;2022-12-10T05:19:45;101045.75;;;0.44;90.46
43745;BME280;29359;53.048;8.732;2022-12-10T05:21:47;101053.53;;;0.44;90.44
43745;BME280;29359;53.048;8.732;2022-12-10T05:24:07;101044.91;;;0.47;90.60
43745;BME280;29359;53.048;8.732;2022-12-10T05:26:10;101046.66;;;0.48;90.14
43745;BME280;29359;53.048;8.732;2022-12-10T05:28:12;101039.78;;;0.50;90.37
43745;BME280;29359;53.048;8.732;2022-12-10T05:30:13;101040.66;;;0.50;90.04
43745;BME280;29359;53.048;8.732;2022-12-10T05:32:15;101044.09;;;0.49;90.39
43745;BME280;29359;53.048;8.732;2022-12-10T05:34:16;101048.44;;;0.50;90.12
43745;BME280;29359;53.048;8.732;2022-12-10T05:36:22;101044.97;;;0.50;90.00
43745;BME280;29359;53.048;8.732;2022-12-10T05:38:25;101039.78;;;0.50;90.13
43745;BME280;29359;53.048;8.732;2022-12-10T05:40:26;101045.88;;;0.52;89.94
43745;BME280;29359;53.048;8.732;2022-12-10T05:42:28;101049.31;;;0.51;89.81
43745;BME280;29359;53.048;8.732;2022-12-10T05:44:29;101054.47;;;0.49;89.90
43745;BME280;29359;53.048;8.732;2022-12-10T05:46:33;101054.47;;;0.49;89.71
43745;BME280;29359;53.048;8.732;2022-12-10T05:48:35;101056.22;;;0.49;89.77
43745;BME280;29359;53.048;8.732;2022-12-10T05:50:37;101064.81;;;0.46;90.19
43745;BME280;29359;53.048;8.732;2022-12-10T05:52:39;101066.47;;;0.43;89.93
43745;BME280;29359;53.048;8.732;2022-12-10T05:54:40;101060.38;;;0.41;90.34
43745;BME280;29359;53.048;8.732;2022-12-10T05:56:42;101067.31;;;0.42;90.58
43745;BME280;29359;53.048;8.732;2022-12-10T05:58:45;101075.09;;;0.42;90.90
43745;BME280;29359;53.048;8.732;2022-12-10T06:00:47;101075.97;;;0.42;91.17
43745;BME280;29359;53.048;8.732;2022-12-10T06:02:51;101073.34;;;0.41;90.94
43745;BME280;29359;53.048;8.732;2022-12-10T06:04:53;101078.56;;;0.41;90.61
43745;BME280;29359;53.048;8.732;2022-12-10T06:06:54;101085.47;;;0.40;90.93
43745;BME280;29359;53.048;8.732;2022-12-10T06:08:57;101085.50;;;0.42;91.04
43745;BME280;29359;53.048;8.732;2022-12-10T06:11:10;101078.63;;;0.44;90.90
43745;BME280;29359;53.048;8.732;2022-12-10T06:13:11;101082.97;;;0.45;91.11
43745;BME280;29359;53.048;8.732;2022-12-10T06:15:13;101077.78;;;0.45;91.32
43745;BME280;29359;53.048;8.732;2022-12-10T06:17:14;101083.03;;;0.48;90.76
43745;BME280;29359;53.048;8.732;2022-12-10T06:19:16;101090.81;;;0.46;91.04
43745;BME280;29359;53.048;8.732;2022-12-10T06:21:18;101088.94;;;0.41;91.23
43745;BME280;29359;53.048;8.732;2022-12-10T06:23:20;101091.50;;;0.38;91.66
43745;BME280;29359;53.048;8.732;2022-12-10T06:25:21;101087.19;;;0.40;91.29
43745;BME280;29359;53.048;8.732;2022-12-10T06:27:23;101095.00;;;0.41;91.52
43745;BME280;29359;53.048;8.732;2022-12-10T06:29:24;101094.09;;;0.39;91.70
43745;BME280;29359;53.048;8.732;2022-12-10T06:31:26;101093.13;;;0.32;91.68
43745;BME280;29359;53.048;8.732;2022-12-10T06:33:27;101091.38;;;0.31;91.57
43745;BME280;29359;53.048;8.732;2022-12-10T06:35:29;101100.06;;;0.34;91.65
43745;BME280;29359;53.048;8.732;2022-12-10T06:37:30;101097.53;;;0.37;92.31
43745;BME280;29359;53.048;8.732;2022-12-10T06:39:32;101096.69;;;0.38;91.79
43745;BME280;29359;53.048;8.732;2022-12-10T06:41:33;101098.41;;;0.37;92.02
43745;BME280;29359;53.048;8.732;2022-12-10T06:43:35;101104.50;;;0.39;91.63
43745;BME280;29359;53.048;8.732;2022-12-10T06:45:41;101095.84;;;0.40;92.04
43745;BME280;29359;53.048;8.732;2022-12-10T06:47:43;101097.63;;;0.43;91.82
43745;BME280;29359;53.048;8.732;2022-12-10T06:49:44;101098.44;;;0.39;91.73
43745;BME280;29359;53.048;8.732;2022-12-10T06:51:47;101097.53;;;0.37;91.64
43745;BME280;29359;53.048;8.732;2022-12-10T06:53:48;101096.63;;;0.35;92.38
43745;BME280;29359;53.048;8.732;2022-12-10T06:55:50;101104.44;;;0.36;91.81
43745;BME280;29359;53.048;8.732;2022-12-10T06:57:52;101107.09;;;0.39;92.27
43745;BME280;29359;53.048;8.732;2022-12-10T06:59:54;101113.16;;;0.40;91.84
43745;BME280;29359;53.048;8.732;2022-12-10T07:01:55;101113.03;;;0.32;91.88
43745;BME280;29359;53.048;8.732;2022-12-10T07:03:57;101121.56;;;0.25;92.10
43745;BME280;29359;53.048;8.732;2022-12-10T07:06:00;101127.63;;;0.25;92.53
43745;BME280;29359;53.048;8.732;2022-12-10T07:08:02;101133.75;;;0.29;91.91
43745;BME280;29359;53.048;8.732;2022-12-10T07:10:04;101127.75;;;0.31;92.14
43745;BME280;29359;53.048;8.732;2022-12-10T07:12:07;101131.25;;;0.34;92.47
43745;BME280;29359;53.048;8.732;2022-12-10T07:14:14;101136.47;;;0.37;92.16
43745;BME280;29359;53.048;8.732;2022-12-10T07:16:21;101136.50;;;0.38;91.97
43745;BME280;29359;53.048;8.732;2022-12-10T07:18:24;101141.72;;;0.38;92.40
43745;BME280;29359;53.048;8.732;2022-12-10T07:20:25;101139.97;;;0.39;92.41
43745;BME280;29359;53.048;8.732;2022-12-10T07:22:26;101148.69;;;0.41;92.54
43745;BME280;29359;53.048;8.732;2022-12-10T07:24:28;101144.38;;;0.43;92.27
43745;BME280;29359;53.048;8.732;2022-12-10T07:26:31;101137.53;;;0.45;91.56
43745;BME280;29359;53.048;8.732;2022-12-10T07:28:33;101139.28;;;0.46;92.16
43745;BME280;29359;53.048;8.732;2022-12-10T07:30:41;101147.03;;;0.44;91.66
43745;BME280;29359;53.048;8.732;2022-12-10T07:32:43;101144.34;;;0.41;91.70
43745;BME280;29359;53.048;8.732;2022-12-10T07:34:44;101148.69;;;0.41;92.30
43745;BME280;29359;53.048;8.732;2022-12-10T07:36:46;101151.31;;;0.42;92.08
43745;BME280;29359;53.048;8.732;2022-12-10T07:38:48;101147.91;;;0.45;92.44
43745;BME280;29359;53.048;8.732;2022-12-10T07:40:50;101149.69;;;0.47;92.21
43745;BME280;29359;53.048;8.732;2022-12-10T07:42:52;101145.34;;;0.46;92.51
43745;BME280;29359;53.048;8.732;2022-12-10T07:44:54;101141.91;;;0.47;92.04
43745;BME280;29359;53.048;8.732;2022-12-10T07:46:55;101145.38;;;0.48;92.05
43745;BME280;29359;53.048;8.732;2022-12-10T07:49:00;101145.38;;;0.48;92.21
43745;BME280;29359;53.048;8.732;2022-12-10T07:51:02;101149.72;;;0.49;92.16
43745;BME280;29359;53.048;8.732;2022-12-10T07:53:03;101149.72;;;0.49;91.64
43745;BME280;29359;53.048;8.732;2022-12-10T07:55:05;101152.34;;;0.50;92.12
43745;BME280;29359;53.048;8.732;2022-12-10T07:57:06;101160.13;;;0.50;91.98
43745;BME280;29359;53.048;8.732;2022-12-10T07:59:08;101154.06;;;0.50;92.04
43745;BME280;29359;53.048;8.732;2022-12-10T08:01:18;101159.25;;;0.50;92.04
43745;BME280;29359;53.048;8.732;2022-12-10T08:03:20;101163.50;;;0.45;92.21
43745;BME280;29359;53.048;8.732;2022-12-10T08:05:21;101168.72;;;0.46;92.02
43745;BME280;29359;53.048;8.732;2022-12-10T08:07:23;101165.28;;;0.47;91.98
43745;BME280;29359;53.048;8.732;2022-12-10T08:09:24;101173.97;;;0.49;92.51
43745;BME280;29359;53.048;8.732;2022-12-10T08:11:27;101171.44;;;0.52;92.33
43745;BME280;29359;53.048;8.732;2022-12-10T08:13:29;101176.66;;;0.54;92.60
43745;BME280;29359;53.048;8.732;2022-12-10T08:15:30;101181.88;;;0.55;92.15
43745;BME280;29359;53.048;8.732;2022-12-10T08:17:34;101178.44;;;0.56;92.12
43745;BME280;29359;53.048;8.732;2022-12-10T08:19:36;101185.38;;;0.57;91.91
43745;BME280;29359;53.048;8.732;2022-12-10T08:21:37;101184.53;;;0.58;92.24
43745;BME280;29359;53.048;8.732;2022-12-10T08:23:40;101193.19;;;0.59;92.17
43745;BME280;29359;53.048;8.732;2022-12-10T08:25:41;101184.56;;;0.60;91.95
43745;BME280;29359;53.048;8.732;2022-12-10T08:27:43;101193.22;;;0.60;92.24
43745;BME280;29359;53.048;8.732;2022-12-10T08:29:44;101189.78;;;0.61;92.22
43745;BME280;29359;53.048;8.732;2022-12-10T08:31:46;101188.03;;;0.62;91.87
43745;BME280;29359;53.048;8.732;2022-12-10T08:33:47;101187.22;;;0.65;92.49
43745;BME280;29359;53.048;8.732;2022-12-10T08:35:49;101194.16;;;0.64;91.90
43745;BME280;29359;53.048;8.732;2022-12-10T08:37:50;101195.03;;;0.66;92.09
43745;BME280;29359;53.048;8.732;2022-12-10T08:39:52;101198.53;;;0.67;91.89
43745;BME280;29359;53.048;8.732;2022-12-10T08:41:53;101202.03;;;0.69;92.23
43745;BME280;29359;53.048;8.732;2022-12-10T08:43:55;101199.47;;;0.72;91.99
43745;BME280;29359;53.048;8.732;2022-12-10T08:45:58;101196.91;;;0.73;91.42
43745;BME280;29359;53.048;8.732;2022-12-10T08:48:01;101199.56;;;0.76;91.20
43745;BME280;29359;53.048;8.732;2022-12-10T08:50:03;101200.44;;;0.77;91.00
43745;BME280;29359;53.048;8.732;2022-12-10T08:52:05;101197.00;;;0.79;90.37
43745;BME280;29359;53.048;8.732;2022-12-10T08:54:06;101201.34;;;0.80;90.95
43745;BME280;29359;53.048;8.732;2022-12-10T08:56:08;101198.75;;;0.80;90.35
43745;BME280;29359;53.048;8.732;2022-12-10T08:58:10;101194.44;;;0.81;90.41
43745;BME280;29359;53.048;8.732;2022-12-10T09:00:12;101194.47;;;0.82;90.05
43745;BME280;29359;53.048;8.732;2022-12-10T09:02:14;101197.06;;;0.82;89.78
43745;BME280;29359;53.048;8.732;2022-12-10T09:04:16;101191.00;;;0.83;90.31
43745;BME280;29359;53.048;8.732;2022-12-10T09:06:19;101184.94;;;0.83;90.06
43745;BME280;29359;53.048;8.732;2022-12-10T09:08:21;101194.47;;;0.84;90.79
43745;BME280;29359;53.048;8.732;2022-12-10T09:10:23;101198.84;;;0.85;90.74
43745;BME280;29359;53.048;8.732;2022-12-10T09:12:24;101200.59;;;0.86;90.77
43745;BME280;29359;53.048;8.732;2022-12-10T09:14:26;101210.19;;;0.88;90.54
43745;BME280;29359;53.048;8.732;2022-12-10T09:16:36;101208.50;;;0.92;91.06
43745;BME280;29359;53.048;8.732;2022-12-10T09:18:38;101218.94;;;0.93;90.84
43745;BME280;29359;53.048;8.732;2022-12-10T09:20:39;101214.59;;;0.92;90.90
43745;BME280;29359;53.048;8.732;2022-12-10T09:22:41;101218.94;;;0.93;90.46
43745;BME280;29359;53.048;8.732;2022-12-10T09:24:42;101218.13;;;0.98;89.77
43745;BME280;29359;53.048;8.732;2022-12-10T09:26:44;101227.75;;;1.02;89.19
43745;BME280;29359;53.048;8.732;2022-12-10T09:28:46;101219.97;;;1.05;89.13
43745;BME280;29359;53.048;8.732;2022-12-10T09:30:58;101216.53;;;1.06;89.16
43745;BME280;29359;53.048;8.732;2022-12-10T09:33:00;101218.28;;;1.07;88.70
43745;BME280;29359;53.048;8.732;2022-12-10T09:35:03;101214.84;;;1.08;88.26
43745;BME280;29359;53.048;8.732;2022-12-10T09:37:05;101221.81;;;1.10;88.16
43745;BME280;29359;53.048;8.732;2022-12-10T09:39:06;101223.59;;;1.13;87.59
43745;BME280;29359;53.048;8.732;2022-12-10T09:43:20;101220.13;;;1.14;87.23
43745;BME280;29359;53.048;8.732;2022-12-10T09:52:22;101220.19;;;1.17;87.15
43745;BME280;29359;53.048;8.732;2022-12-10T09:54:31;101219.31;;;1.18;87.66
43745;BME280;29359;53.048;8.732;2022-12-10T09:56:36;101221.09;;;1.20;87.63
43745;BME280;29359;53.048;8.732;2022-12-10T09:58:41;101221.13;;;1.22;87.31
43745;BME280;29359;53.048;8.732;2022-12-10T10:00:45;101223.75;;;1.23;87.61
43745;BME280;29359;53.048;8.732;2022-12-10T10:02:49;101221.22;;;1.28;87.36
43745;BME280;29359;53.048;8.732;2022-12-10T10:05:08;101222.16;;;1.30;87.70
43745;BME280;29359;53.048;8.732;2022-12-10T10:07:19;101217.84;;;1.32;87.36
43745;BME280;29359;53.048;8.732;2022-12-10T10:09:21;101221.34;;;1.34;87.30
43745;BME280;29359;53.048;8.732;2022-12-10T10:11:28;101226.50;;;1.31;86.92
43745;BME280;29359;53.048;8.732;2022-12-10T10:13:39;101223.94;;;1.34;87.14
43745;BME280;29359;53.048;8.732;2022-12-10T10:15:44;101225.72;;;1.37;87.00
43745;BME280;29359;53.048;8.732;2022-12-10T10:17:46;101224.81;;;1.35;86.58
43745;BME280;29359;53.048;8.732;2022-12-10T10:19:50;101237.00;;;1.37;86.53
43745;BME280;29359;53.048;8.732;2022-12-10T10:21:52;101224.06;;;1.42;85.78
43745;BME280;29359;53.048;8.732;2022-12-10T10:23:54;101225.81;;;1.43;85.38
43745;BME280;29359;53.048;8.732;2022-12-10T10:25:56;101232.75;;;1.44;85.41
43745;BME280;29359;53.048;8.732;2022-12-10T10:27:57;101230.22;;;1.47;84.97
43745;BME280;29359;53.048;8.732;2022-12-10T10:30:03;101237.22;;;1.52;84.96
43745;BME280;29359;53.048;8.732;2022-12-10T10:32:22;101228.53;;;1.52;84.51
43745;BME280;29359;53.048;8.732;2022-12-10T10:34:24;101237.22;;;1.52;84.35
43745;BME280;29359;53.048;8.732;2022-12-10T10:36:31;101236.31;;;1.49;84.47
43745;BME280;29359;53.048;8.732;2022-12-10T10:38:34;101233.72;;;1.50;84.24
43745;BME280;29359;53.048;8.732;2022-12-10T10:42:40;101233.59;;;1.41;82.85
43745;BME280;29359;53.048;8.732;2022-12-10T10:44:42;101229.16;;;1.36;82.82
43745;BME280;29359;53.048;8.732;2022-12-10T10:46:46;101232.56;;;1.30;81.69
43745;BME280;29359;53.048;8.732;2022-12-10T10:48:49;101222.19;;;1.33;81.84
43745;BME280;29359;53.048;8.732;2022-12-10T10:55:32;101223.34;;;1.52;82.24
43745;BME280;29359;53.048;8.732;2022-12-10T10:57:37;101225.13;;;1.54;82.14
43745;BME280;29359;53.048;8.732;2022-12-10T10:59:39;101214.75;;;1.57;82.21
43745;BME280;29359;53.048;8.732;2022-12-10T11:01:52;101209.59;;;1.61;82.29
43745;BME280;29359;53.048;8.732;2022-12-10T11:03:57;101209.59;;;1.62;81.95
43745;BME280;29359;53.048;8.732;2022-12-10T11:05:59;101209.66;;;1.67;82.28
43745;BME280;29359;53.048;8.732;2022-12-10T11:08:06;101214.97;;;1.73;82.26
43745;BME280;29359;53.048;8.732;2022-12-10T11:10:24;101215.03;;;1.76;81.35
43745;BME280;29359;53.048;8.732;2022-12-10T11:12:35;101203.78;;;1.78;81.23
43745;BME280;29359;53.048;8.732;2022-12-10T11:14:44;101202.88;;;1.76;80.76
43745;BME280;29359;53.048;8.732;2022-12-10T11:16:47;101208.97;;;1.77;80.38
43745;BME280;29359;53.048;8.732;2022-12-10T11:19:02;101208.97;;;1.77;80.02
43745;BME280;29359;53.048;8.732;2022-12-10T11:23:13;101206.38;;;1.78;80.39
43745;BME280;29359;53.048;8.732;2022-12-10T11:25:14;101206.38;;;1.77;79.73